Time;durP1;ratioP1;P1;durP2;ratioP2;P2;SDS_P1;SDS_P2;PMS_P1;PMS_P2;Temp;Humidity;BMP_temperature;BMP_pressure;BME280_temperature;BME280_humidity;BME280_pressure;Samples;Min_cycle;Max_cycle;Signal;HPM_P1;HPM_P2
2021/07/05 00:01:53;;;;;;;5.45;4.95;;;18.20;81.20;;;;;;4938374;29;20024;-92
2021/07/05 00:04:18;;;;;;;4.70;4.25;;;18.20;81.20;;;;;;4929674;29;20087;-92
2021/07/05 00:06:44;;;;;;;4.22;2.78;;;18.10;81.30;;;;;;4913449;29;20111;-92
2021/07/05 00:09:09;;;;;;;4.28;3.78;;;18.10;81.20;;;;;;4918156;29;20129;-92
2021/07/05 00:11:35;;;;;;;4.05;3.28;;;18.10;81.10;;;;;;4919155;29;20370;-92
2021/07/05 00:14:01;;;;;;;4.97;4.22;;;18.20;81.10;;;;;;4919345;29;20040;-94
2021/07/05 00:16:26;;;;;;;3.50;3.20;;;18.20;81.10;;;;;;4919278;29;20028;-93
2021/07/05 00:18:52;;;;;;;3.90;3.20;;;18.20;81.00;;;;;;4918031;29;20062;-94
2021/07/05 00:21:18;;;;;;;3.85;3.10;;;18.20;80.80;;;;;;4917942;29;20024;-93
2021/07/05 00:23:43;;;;;;;3.47;3.17;;;18.20;80.80;;;;;;4918710;29;20016;-92
2021/07/05 00:26:09;;;;;;;2.55;2.35;;;18.20;80.70;;;;;;4903927;29;20053;-92
2021/07/05 00:28:36;;;;;;;3.17;2.88;;;18.30;80.70;;;;;;4909997;29;20017;-92
2021/07/05 00:31:02;;;;;;;3.05;2.75;;;18.30;80.70;;;;;;4911519;29;20036;-93
2021/07/05 00:33:28;;;;;;;4.35;2.35;;;18.30;80.60;;;;;;4911171;29;20040;-94
2021/07/05 00:35:54;;;;;;;4.13;3.40;;;18.30;80.50;;;;;;4917692;29;20024;-93
2021/07/05 00:38:19;;;;;;;2.85;2.65;;;18.30;80.50;;;;;;4917253;29;20028;-91
2021/07/05 00:40:45;;;;;;;2.95;2.58;;;18.30;80.50;;;;;;4917702;29;20024;-92
2021/07/05 00:43:11;;;;;;;4.22;3.30;;;18.40;80.40;;;;;;4917958;29;20468;-92
2021/07/05 00:45:36;;;;;;;2.92;2.67;;;18.30;81.00;;;;;;4918524;29;20035;-91
2021/07/05 00:48:03;;;;;;;3.38;3.08;;;18.30;80.50;;;;;;4912628;29;20050;-92
2021/07/05 00:50:29;;;;;;;3.13;2.60;;;18.30;80.40;;;;;;4916117;29;20016;-91
2021/07/05 00:52:57;;;;;;;3.03;2.72;;;18.30;81.10;;;;;;4907492;29;20095;-91
2021/07/05 00:55:26;;;;;;;2.78;2.55;;;18.30;80.40;;;;;;4920017;29;20080;-94
2021/07/05 00:57:53;;;;;;;3.80;2.78;;;18.20;80.60;;;;;;4935272;29;20483;-93
2021/07/05 01:00:21;;;;;;;4.05;3.17;;;18.20;80.80;;;;;;4918766;29;20024;-94
2021/07/05 01:02:48;;;;;;;4.18;3.28;;;18.20;81.10;;;;;;4927131;29;20032;-94
2021/07/05 01:05:13;;;;;;;2.80;2.50;;;18.10;81.90;;;;;;4918550;29;20028;-94
2021/07/05 01:07:41;;;;;;;2.55;2.20;;;18.10;81.30;;;;;;4906751;29;20028;-93
2021/07/05 01:10:08;;;;;;;3.08;2.70;;;18.10;81.50;;;;;;4916620;29;20081;-92
2021/07/05 01:12:34;;;;;;;2.38;2.17;;;18.10;81.50;;;;;;4913525;29;20039;-92
2021/07/05 01:15:00;;;;;;;2.63;2.42;;;18.10;81.30;;;;;;4910821;29;20411;-93
2021/07/05 01:17:25;;;;;;;2.22;2.03;;;18.10;81.20;;;;;;4898052;29;20080;-92
2021/07/05 01:19:51;;;;;;;2.30;2.10;;;18.20;81.20;;;;;;4915871;29;20030;-92
2021/07/05 01:22:19;;;;;;;1.90;1.80;;;18.10;81.00;;;;;;4917584;29;20443;-92
2021/07/05 01:24:46;;;;;;;2.38;2.10;;;18.10;81.10;;;;;;4916516;29;20027;-92
2021/07/05 01:27:12;;;;;;;2.80;2.03;;;18.10;81.10;;;;;;4916612;29;20507;-92
2021/07/05 01:29:41;;;;;;;2.45;2.20;;;18.10;81.10;;;;;;4918191;29;20024;-94
2021/07/05 01:32:08;;;;;;;1.73;1.60;;;18.10;81.20;;;;;;4916374;29;20080;-95
2021/07/05 01:34:35;;;;;;;1.98;1.70;;;18.10;81.00;;;;;;4907929;29;20485;-94
2021/07/05 01:37:01;;;;;;;1.75;1.50;;;18.20;81.00;;;;;;4904337;29;20072;-92
2021/07/05 01:39:26;;;;;;;2.03;1.20;;;18.20;80.80;;;;;;4919835;29;20016;-94
2021/07/05 01:41:52;;;;;;;2.30;1.70;;;18.20;81.20;;;;;;4935217;29;20110;-94
2021/07/05 01:44:18;;;;;;;1.70;1.60;;;18.30;80.60;;;;;;4917735;29;20074;-93
2021/07/05 01:46:43;;;;;;;2.88;2.00;;;18.30;80.50;;;;;;4917825;29;20050;-95
2021/07/05 01:49:09;;;;;;;3.25;1.90;;;18.30;80.30;;;;;;4907729;29;20036;-95
2021/07/05 01:51:35;;;;;;;2.10;1.83;;;18.30;80.10;;;;;;4910193;29;20031;-94
2021/07/05 01:54:01;;;;;;;2.45;2.25;;;18.30;80.00;;;;;;4904876;29;20032;-96
2021/07/05 01:56:27;;;;;;;2.10;1.90;;;18.30;80.10;;;;;;4917506;29;20083;-94
2021/07/05 01:58:53;;;;;;;2.15;1.95;;;18.20;80.00;;;;;;4917016;29;20028;-95
2021/07/05 02:01:18;;;;;;;3.42;3.13;;;18.10;80.00;;;;;;4917350;29;20024;-94
2021/07/05 02:03:44;;;;;;;3.55;2.40;;;18.10;80.10;;;;;;4916962;29;20051;-94
2021/07/05 02:06:10;;;;;;;2.80;2.30;;;18.00;80.30;;;;;;4917318;29;20487;-93
2021/07/05 02:08:36;;;;;;;2.45;1.60;;;18.00;80.40;;;;;;4913134;29;20047;-93
2021/07/05 02:11:03;;;;;;;1.58;1.45;;;18.00;80.30;;;;;;4898275;29;20031;-93
2021/07/05 02:13:30;;;;;;;1.63;1.52;;;18.10;80.30;;;;;;4912613;29;20092;-94
2021/07/05 02:15:58;;;;;;;3.28;1.50;;;18.10;80.20;;;;;;4900606;29;20021;-93
2021/07/05 02:18:25;;;;;;;2.42;2.00;;;18.20;80.10;;;;;;4902619;29;20085;-92
2021/07/05 02:20:52;;;;;;;2.05;1.85;;;18.10;80.00;;;;;;4916733;29;20076;-93
2021/07/05 02:23:19;;;;;;;2.75;2.03;;;18.10;80.10;;;;;;4908792;29;20064;-93
2021/07/05 02:25:46;;;;;;;1.77;1.67;;;18.10;80.10;;;;;;4921892;29;20035;-93
2021/07/05 02:28:15;;;;;;;2.60;2.17;;;18.10;80.20;;;;;;4921882;29;20023;-94
2021/07/05 02:30:44;;;;;;;2.55;1.90;;;18.00;80.30;;;;;;4918894;29;20480;-94
2021/07/05 02:33:16;;;;;;;3.13;2.00;;;18.00;80.50;;;;;;4916859;29;20095;-95
2021/07/05 02:35:42;;;;;;;2.80;2.20;;;17.90;80.50;;;;;;4923899;29;20020;-96
2021/07/05 02:38:10;;;;;;;2.97;1.60;;;17.90;80.60;;;;;;4928114;29;20059;-95
2021/07/05 02:40:43;;;;;;;2.13;1.92;;;17.90;80.60;;;;;;4938178;29;20008;-94
2021/07/05 02:43:09;;;;;;;1.70;1.60;;;18.00;80.60;;;;;;4927723;28;20024;-93
2021/07/05 02:45:35;;;;;;;1.73;1.40;;;17.90;80.70;;;;;;4920234;29;20036;-95
2021/07/05 02:48:11;;;;;;;2.20;1.88;;;17.90;80.60;;;;;;4917129;29;20039;-93
2021/07/05 02:50:38;;;;;;;1.42;1.30;;;17.90;80.50;;;;;;4915803;29;20076;-94
2021/07/05 02:53:07;;;;;;;1.77;1.60;;;18.00;80.50;;;;;;4906024;29;20036;-94
2021/07/05 02:55:32;;;;;;;1.70;1.60;;;18.00;80.40;;;;;;4904005;29;20030;-93
2021/07/05 02:58:01;;;;;;;2.35;2.15;;;18.00;80.30;;;;;;4921806;29;20024;-94
2021/07/05 03:00:33;;;;;;;2.30;2.10;;;18.00;80.20;;;;;;4916597;29;20107;-94
2021/07/05 03:02:59;;;;;;;3.60;2.35;;;18.00;80.30;;;;;;4915064;29;20083;-95
2021/07/05 03:05:27;;;;;;;3.00;2.67;;;18.00;80.40;;;;;;4916949;29;20028;-95
2021/07/05 03:07:53;;;;;;;2.50;2.30;;;17.90;80.50;;;;;;4906051;29;20392;-95
2021/07/05 03:10:25;;;;;;;3.42;2.38;;;17.80;80.70;;;;;;4925820;29;20028;-93
2021/07/05 03:12:51;;;;;;;2.35;2.15;;;17.80;80.80;;;;;;4939179;29;20039;-93
2021/07/05 03:15:17;;;;;;;3.30;3.00;;;17.90;80.80;;;;;;4918278;29;20024;-94
2021/07/05 03:17:44;;;;;;;2.63;2.42;;;17.80;80.80;;;;;;4919795;29;20028;-94
2021/07/05 03:20:15;;;;;;;2.40;2.17;;;17.80;81.00;;;;;;4927705;29;20028;-95
2021/07/05 03:22:41;;;;;;;2.53;2.33;;;17.80;80.90;;;;;;4922054;29;20031;-93
2021/07/05 03:25:10;;;;;;;2.13;1.98;;;17.80;80.90;;;;;;4923995;29;20028;-92
2021/07/05 03:27:36;;;;;;;3.15;2.67;;;17.80;81.00;;;;;;4908751;29;20024;-92
2021/07/05 03:30:05;;;;;;;2.63;2.42;;;17.80;81.00;;;;;;4919011;29;20051;-93
2021/07/05 03:32:31;;;;;;;2.67;2.47;;;17.90;81.10;;;;;;4914450;29;20036;-93
2021/07/05 03:34:56;;;;;;;3.83;3.28;;;17.90;81.00;;;;;;4919300;29;20447;-95
2021/07/05 03:37:22;;;;;;;3.63;2.60;;;17.90;81.00;;;;;;4915380;29;20028;-94
2021/07/05 03:39:48;;;;;;;4.30;3.10;;;17.90;81.70;;;;;;4915365;29;20034;-93
2021/07/05 03:42:13;;;;;;;3.10;2.85;;;17.90;81.10;;;;;;4914778;29;20495;-93
2021/07/05 03:44:39;;;;;;;4.35;3.00;;;17.90;81.20;;;;;;4920144;29;20016;-94
2021/07/05 03:47:05;;;;;;;4.13;2.90;;;17.90;81.20;;;;;;4919498;29;20055;-94
2021/07/05 03:49:31;;;;;;;3.53;2.63;;;17.80;81.30;;;;;;4918327;29;20479;-94
2021/07/05 03:51:56;;;;;;;3.05;2.67;;;17.80;81.50;;;;;;4917359;29;20024;-94
2021/07/05 03:54:22;;;;;;;5.30;2.40;;;17.80;81.40;;;;;;4921055;29;20550;-94
2021/07/05 03:56:48;;;;;;;2.33;1.50;;;17.80;81.30;;;;;;4913951;29;20056;-94
2021/07/05 03:59:14;;;;;;;2.28;2.00;;;17.80;81.30;;;;;;4912731;29;20071;-95
2021/07/05 04:01:40;;;;;;;3.63;2.20;;;17.80;81.10;;;;;;4909371;29;20173;-95
2021/07/05 04:04:06;;;;;;;2.97;2.00;;;17.70;81.00;;;;;;4912562;29;20069;-94
2021/07/05 04:06:32;;;;;;;3.25;1.88;;;17.70;81.10;;;;;;4900606;29;20025;-93
2021/07/05 04:08:59;;;;;;;3.47;1.90;;;17.70;81.10;;;;;;4917952;29;20035;-92
2021/07/05 04:11:25;;;;;;;1.70;1.40;;;17.60;81.00;;;;;;4917365;29;20052;-92
2021/07/05 04:13:50;;;;;;;3.20;1.60;;;17.60;80.90;;;;;;4917800;29;20036;-91
2021/07/05 04:16:16;;;;;;;2.28;1.50;;;17.60;80.80;;;;;;4918971;29;20032;-92
2021/07/05 04:18:42;;;;;;;2.10;1.33;;;17.60;80.70;;;;;;4912935;29;20108;-92
2021/07/05 04:21:08;;;;;;;1.63;1.30;;;17.60;80.80;;;;;;4917711;29;20024;-91
2021/07/05 04:23:34;;;;;;;1.45;1.02;;;17.50;80.60;;;;;;4918337;29;20404;-91
2021/07/05 04:26:01;;;;;;;2.20;1.27;;;17.50;80.70;;;;;;4906292;29;20024;-91
2021/07/05 04:28:27;;;;;;;1.73;1.08;;;17.50;80.60;;;;;;4910167;29;20107;-94
2021/07/05 04:30:53;;;;;;;3.00;1.00;;;17.50;80.50;;;;;;4911623;29;20439;-95
2021/07/05 04:33:22;;;;;;;1.92;1.20;;;17.40;80.40;;;;;;4917786;29;20052;-96
2021/07/05 04:35:47;;;;;;;1.85;1.20;;;17.40;80.50;;;;;;4919385;29;20514;-95
2021/07/05 04:38:13;;;;;;;2.20;1.10;;;17.30;80.30;;;;;;4918058;29;20028;-95
2021/07/05 04:40:41;;;;;;;1.00;0.90;;;17.40;80.30;;;;;;4917035;29;20062;-95
2021/07/05 04:43:09;;;;;;;2.10;1.00;;;17.30;80.30;;;;;;4914284;29;20468;-93
2021/07/05 04:45:38;;;;;;;2.67;1.10;;;17.30;80.20;;;;;;4912833;29;20031;-94
2021/07/05 04:48:06;;;;;;;2.10;1.00;;;17.30;80.10;;;;;;4915149;29;20044;-95
2021/07/05 04:50:34;;;;;;;2.88;1.13;;;17.30;80.10;;;;;;4912066;29;20093;-95
2021/07/05 04:53:00;;;;;;;2.17;1.00;;;17.30;80.10;;;;;;4917317;29;20118;-95
2021/07/05 04:55:27;;;;;;;1.42;0.90;;;17.30;80.10;;;;;;4918331;29;20069;-93
2021/07/05 04:57:53;;;;;;;1.80;0.90;;;17.30;80.00;;;;;;4918571;29;20154;-92
2021/07/05 05:00:21;;;;;;;0.73;0.73;;;17.30;80.00;;;;;;4918369;29;20021;-92
2021/07/05 05:02:46;;;;;;;2.15;1.10;;;17.30;80.00;;;;;;4917988;29;20052;-91
2021/07/05 05:05:12;;;;;;;1.73;1.08;;;17.20;79.90;;;;;;4918144;29;20069;-92
2021/07/05 05:07:39;;;;;;;2.00;1.10;;;17.20;80.00;;;;;;4915956;29;20040;-93
2021/07/05 05:10:07;;;;;;;1.80;1.08;;;17.20;79.90;;;;;;4916963;29;20031;-92
2021/07/05 05:12:32;;;;;;;1.52;1.23;;;17.20;79.90;;;;;;4917222;29;20075;-92
2021/07/05 05:14:58;;;;;;;1.95;1.20;;;17.10;80.40;;;;;;4914598;29;20028;-92
2021/07/05 05:17:24;;;;;;;2.70;1.00;;;17.20;79.80;;;;;;4917763;29;20116;-92
2021/07/05 05:19:50;;;;;;;2.50;1.38;;;17.20;79.80;;;;;;4906796;29;20534;-94
2021/07/05 05:22:16;;;;;;;2.25;1.17;;;17.10;79.70;;;;;;4916405;29;20036;-93
2021/07/05 05:24:42;;;;;;;3.25;1.30;;;17.10;79.70;;;;;;4918709;29;20024;-93
2021/07/05 05:27:11;;;;;;;2.28;1.13;;;17.00;79.80;;;;;;4917908;29;20480;-95
2021/07/05 05:29:36;;;;;;;0.73;0.73;;;17.00;79.80;;;;;;4924846;29;20028;-93
2021/07/05 05:32:03;;;;;;;1.70;1.42;;;17.00;79.70;;;;;;4911674;29;20073;-93
2021/07/05 05:34:29;;;;;;;2.08;1.33;;;17.00;79.70;;;;;;4899360;29;20152;-92
2021/07/05 05:36:55;;;;;;;1.63;1.05;;;16.90;80.50;;;;;;4918014;29;20107;-94
2021/07/05 05:39:20;;;;;;;2.72;1.60;;;16.80;79.90;;;;;;4914104;29;20040;-94
2021/07/05 05:41:46;;;;;;;2.08;1.50;;;16.80;80.00;;;;;;4910784;29;20024;-94
2021/07/05 05:44:12;;;;;;;2.97;1.58;;;16.70;80.10;;;;;;4905864;29;20469;-93
2021/07/05 05:46:37;;;;;;;4.00;2.00;;;16.70;80.30;;;;;;4915071;29;20060;-92
2021/07/05 05:49:03;;;;;;;3.28;1.98;;;16.70;80.50;;;;;;4903860;29;20036;-94
2021/07/05 05:51:35;;;;;;;4.18;1.90;;;16.60;80.80;;;;;;4916327;29;20028;-92
2021/07/05 05:54:09;;;;;;;2.40;1.63;;;16.50;81.10;;;;;;4916363;29;20032;-93
2021/07/05 05:56:37;;;;;;;3.00;2.08;;;16.40;81.20;;;;;;4912834;29;20020;-93
2021/07/05 05:59:08;;;;;;;4.45;2.00;;;16.40;81.60;;;;;;4912787;29;20099;-94
2021/07/05 06:01:37;;;;;;;4.20;2.27;;;16.40;81.90;;;;;;4908981;29;20020;-92
2021/07/05 06:04:03;;;;;;;3.65;1.73;;;16.40;81.80;;;;;;4904938;29;20024;-92
2021/07/05 06:06:29;;;;;;;3.88;1.75;;;16.40;81.90;;;;;;4911428;29;20024;-93
2021/07/05 06:08:55;;;;;;;3.30;1.70;;;16.50;81.80;;;;;;4918526;29;20042;-90
2021/07/05 06:11:21;;;;;;;5.00;2.10;;;16.50;81.80;;;;;;4924970;29;20111;-91
2021/07/05 06:13:47;;;;;;;3.13;1.90;;;16.50;81.70;;;;;;4916339;29;20130;-92
2021/07/05 06:16:13;;;;;;;4.25;2.30;;;16.50;81.80;;;;;;4921570;29;20016;-91
2021/07/05 06:18:38;;;;;;;4.35;2.20;;;16.50;81.80;;;;;;4915733;29;20491;-90
2021/07/05 06:21:04;;;;;;;6.22;2.10;;;16.50;82.00;;;;;;4917000;29;20024;-91
2021/07/05 06:23:30;;;;;;;4.03;1.90;;;16.60;82.00;;;;;;4915559;29;20025;-94
2021/07/05 06:25:59;;;;;;;5.13;2.45;;;16.60;81.90;;;;;;4915121;29;20665;-93
2021/07/05 06:28:27;;;;;;;3.47;2.13;;;16.50;82.00;;;;;;4922840;29;20097;-96
2021/07/05 06:30:53;;;;;;;3.53;2.03;;;16.60;82.00;;;;;;4929833;29;20017;-96
2021/07/05 06:33:20;;;;;;;7.22;3.10;;;16.60;82.00;;;;;;4926151;29;20039;-96
2021/07/05 06:35:48;;;;;;;4.78;3.00;;;16.70;82.00;;;;;;4934535;29;20076;-91
2021/07/05 06:38:17;;;;;;;3.42;2.20;;;16.70;82.00;;;;;;4923779;29;20039;-92
2021/07/05 06:40:47;;;;;;;5.30;2.88;;;16.70;82.00;;;;;;4917593;29;20039;-96
2021/07/05 06:43:14;;;;;;;5.43;3.30;;;16.70;82.10;;;;;;4919806;29;20412;-90
2021/07/05 06:45:41;;;;;;;3.47;1.80;;;16.60;82.10;;;;;;4914047;29;20427;-92
2021/07/05 06:48:07;;;;;;;5.25;1.95;;;16.70;82.30;;;;;;4913083;29;20080;-91
2021/07/05 06:50:33;;;;;;;4.32;2.42;;;16.70;82.10;;;;;;4914583;29;20051;-91
2021/07/05 06:52:59;;;;;;;5.68;2.95;;;16.80;82.00;;;;;;4921652;29;20536;-91
2021/07/05 06:55:25;;;;;;;4.60;3.10;;;16.80;81.90;;;;;;4915323;29;20043;-92
2021/07/05 06:57:50;;;;;;;5.90;2.92;;;16.70;81.90;;;;;;4915400;29;20061;-86
2021/07/05 07:00:20;;;;;;;4.65;2.78;;;16.80;81.90;;;;;;4914594;29;20060;-89
2021/07/05 07:02:46;;;;;;;5.30;2.83;;;16.80;81.90;;;;;;4914766;29;20147;-93
2021/07/05 07:05:16;;;;;;;4.70;2.67;;;16.90;81.90;;;;;;4909676;29;20039;-89
2021/07/05 07:07:44;;;;;;;4.03;2.85;;;16.90;81.80;;;;;;4915748;29;20480;-87
2021/07/05 07:10:11;;;;;;;4.50;2.53;;;16.90;81.70;;;;;;4913238;29;20031;-88
2021/07/05 07:12:38;;;;;;;6.45;3.50;;;17.00;81.80;;;;;;4919641;29;20479;-88
2021/07/05 07:15:06;;;;;;;3.53;2.55;;;17.00;81.60;;;;;;4917735;29;20024;-90
2021/07/05 07:17:38;;;;;;;6.28;3.78;;;17.00;81.60;;;;;;4911808;29;20079;-91
2021/07/05 07:20:10;;;;;;;7.47;3.70;;;17.00;81.80;;;;;;4908819;29;20072;-91
2021/07/05 07:22:37;;;;;;;6.00;3.38;;;17.00;81.90;;;;;;4913428;29;20029;-89
2021/07/05 07:25:04;;;;;;;6.00;2.90;;;17.00;82.00;;;;;;4908806;29;20071;-88
2021/07/05 07:27:30;;;;;;;5.65;3.10;;;17.00;82.00;;;;;;4915353;29;20035;-89
2021/07/05 07:29:57;;;;;;;6.40;2.72;;;17.10;81.80;;;;;;4906050;29;20036;-88
2021/07/05 07:32:22;;;;;;;3.40;2.25;;;17.20;81.50;;;;;;4908846;29;20467;-88
2021/07/05 07:34:48;;;;;;;5.22;2.80;;;17.40;81.30;;;;;;4916020;29;20032;-90
2021/07/05 07:37:15;;;;;;;4.82;2.58;;;17.40;81.20;;;;;;4914560;29;20028;-90
2021/07/05 07:39:46;;;;;;;4.18;2.75;;;17.60;81.10;;;;;;4910193;29;20036;-91
2021/07/05 07:42:12;;;;;;;5.82;3.25;;;17.70;80.80;;;;;;4909494;29;20032;-89
2021/07/05 07:44:37;;;;;;;6.53;3.00;;;17.70;80.50;;;;;;4912845;29;20487;-89
2021/07/05 07:47:04;;;;;;;5.20;2.78;;;17.70;80.40;;;;;;4914828;29;20024;-89
2021/07/05 07:49:30;;;;;;;5.93;3.20;;;17.70;80.30;;;;;;4910437;29;20131;-92
2021/07/05 07:52:01;;;;;;;3.45;2.22;;;17.80;80.30;;;;;;4913065;29;20024;-89
2021/07/05 07:54:27;;;;;;;4.25;2.47;;;17.90;80.20;;;;;;4910821;29;20067;-91
2021/07/05 07:56:53;;;;;;;5.82;2.92;;;18.00;80.00;;;;;;4916647;29;20024;-91
2021/07/05 07:59:21;;;;;;;4.95;2.95;;;18.10;79.80;;;;;;4915672;29;20058;-92
2021/07/05 08:01:47;;;;;;;7.88;4.03;;;18.20;79.40;;;;;;4916054;29;20042;-93
2021/07/05 08:04:13;;;;;;;4.68;2.63;;;18.30;79.00;;;;;;4919501;29;20028;-91
2021/07/05 08:06:42;;;;;;;3.53;2.50;;;18.30;78.90;;;;;;4909568;29;20369;-87
2021/07/05 08:09:11;;;;;;;4.97;2.90;;;18.50;78.80;;;;;;4906329;29;20025;-90
2021/07/05 08:11:38;;;;;;;6.65;4.18;;;18.70;78.50;;;;;;4914768;29;20033;-90
2021/07/05 08:14:05;;;;;;;7.90;4.07;;;18.70;77.90;;;;;;4916861;29;20036;-90
2021/07/05 08:16:32;;;;;;;4.32;2.40;;;18.60;78.00;;;;;;4908679;29;20024;-89
2021/07/05 08:18:58;;;;;;;6.55;3.25;;;18.70;78.10;;;;;;4907984;29;20031;-95
2021/07/05 08:21:24;;;;;;;4.88;2.60;;;18.70;78.00;;;;;;4910075;29;20459;-90
2021/07/05 08:23:50;;;;;;;5.55;2.70;;;18.80;77.80;;;;;;4914564;29;20747;-89
2021/07/05 08:26:18;;;;;;;8.15;3.33;;;18.90;77.80;;;;;;4913677;29;20055;-87
2021/07/05 08:28:44;;;;;;;6.18;3.35;;;18.80;77.30;;;;;;4911590;29;20095;-91
2021/07/05 08:31:09;;;;;;;5.07;2.83;;;18.80;77.30;;;;;;4915345;29;20039;-89
2021/07/05 08:33:35;;;;;;;7.15;3.45;;;18.90;77.40;;;;;;4914278;29;20044;-88
2021/07/05 08:36:01;;;;;;;5.07;2.60;;;18.90;77.10;;;;;;4912576;29;20067;-88
2021/07/05 08:38:28;;;;;;;6.72;3.00;;;19.00;77.10;;;;;;4905985;29;20077;-88
2021/07/05 08:40:57;;;;;;;5.90;3.53;;;19.10;76.70;;;;;;4912859;29;20056;-87
2021/07/05 08:43:27;;;;;;;5.10;3.05;;;19.00;76.40;;;;;;4914017;29;20036;-88
2021/07/05 08:46:04;;;;;;;6.38;3.25;;;19.00;76.50;;;;;;4911677;29;20079;-88
2021/07/05 08:48:36;;;;;;;5.18;2.75;;;19.10;76.40;;;;;;4912458;29;20028;-88
2021/07/05 08:51:04;;;;;;;7.05;3.25;;;19.10;76.30;;;;;;4909559;29;20028;-90
2021/07/05 08:53:31;;;;;;;7.35;4.10;;;19.20;76.20;;;;;;4911697;29;20397;-88
2021/07/05 08:55:57;;;;;;;4.32;2.10;;;19.30;75.80;;;;;;4910771;29;20024;-88
2021/07/05 08:58:23;;;;;;;3.65;2.30;;;19.30;75.60;;;;;;4912496;29;20032;-87
2021/07/05 09:00:51;;;;;;;6.47;3.88;;;19.40;75.50;;;;;;4910144;29;20039;-85
2021/07/05 09:03:22;;;;;;;6.13;2.90;;;19.30;74.60;;;;;;4909283;29;20530;-86
2021/07/05 09:06:12;;;;;;;3.97;2.47;;;19.30;75.00;;;;;;4912001;29;20016;-87
2021/07/05 09:08:40;;;;;;;5.97;2.63;;;19.40;75.00;;;;;;4910763;29;20032;-89
2021/07/05 09:11:36;;;;;;;3.53;2.30;;;19.40;74.80;;;;;;4903981;29;20114;-89
2021/07/05 09:14:14;;;;;;;4.13;2.20;;;19.50;74.80;;;;;;4899919;29;20048;-88
2021/07/05 09:16:43;;;;;;;3.30;2.00;;;19.60;74.80;;;;;;4910159;29;20395;-91
2021/07/05 09:19:24;;;;;;;3.38;2.30;;;19.80;74.80;;;;;;4911663;29;20024;-88
2021/07/05 09:21:55;;;;;;;4.07;2.40;;;20.00;74.60;;;;;;4913612;29;20035;-88
2021/07/05 09:24:31;;;;;;;4.67;2.60;;;20.00;73.90;;;;;;4910931;29;20375;-88
2021/07/05 09:27:10;;;;;;;3.03;2.17;;;20.10;73.70;;;;;;4910754;29;20448;-86
2021/07/05 09:29:40;;;;;;;4.75;2.80;;;20.30;73.40;;;;;;4907333;29;20039;-87
2021/07/05 09:32:21;;;;;;;5.85;2.45;;;20.50;72.40;;;;;;4911423;29;20114;-87
2021/07/05 09:34:49;;;;;;;4.47;2.30;;;20.50;71.90;;;;;;4914424;29;20031;-91
2021/07/05 09:37:24;;;;;;;4.40;2.95;;;20.60;71.70;;;;;;4908963;29;20502;-89
2021/07/05 09:40:06;;;;;;;6.55;3.40;;;20.70;70.90;;;;;;4907570;29;20467;-92
2021/07/05 09:42:41;;;;;;;4.88;2.65;;;20.60;70.50;;;;;;4913019;29;20032;-87
2021/07/05 09:45:23;;;;;;;3.88;2.38;;;20.50;71.00;;;;;;4911273;29;20367;-86
2021/07/05 09:48:25;;;;;;;5.35;2.85;;;20.60;70.90;;;;;;4904414;29;20028;-88
2021/07/05 09:51:02;;;;;;;5.35;2.30;;;20.50;70.80;;;;;;4913697;29;20028;-85
2021/07/05 09:53:29;;;;;;;7.75;3.10;;;20.40;70.80;;;;;;4910952;29;20028;-84
2021/07/05 09:56:17;;;;;;;4.88;2.80;;;20.50;70.70;;;;;;4909997;29;20031;-85
2021/07/05 09:58:43;;;;;;;2.95;1.77;;;20.40;70.50;;;;;;4904269;29;20062;-87
2021/07/05 10:01:09;;;;;;;7.40;3.97;;;20.50;70.80;;;;;;4913692;29;20028;-89
2021/07/05 10:03:38;;;;;;;4.60;2.38;;;20.40;69.50;;;;;;4905021;29;20031;-85
2021/07/05 10:06:15;;;;;;;6.25;2.90;;;20.30;69.90;;;;;;4911415;29;20547;-86
2021/07/05 10:08:41;;;;;;;5.00;2.38;;;20.40;69.90;;;;;;4906259;29;20432;-84
2021/07/05 10:11:07;;;;;;;4.55;2.38;;;20.60;70.00;;;;;;4908148;29;20051;-87
2021/07/05 10:13:33;;;;;;;3.15;2.35;;;20.70;69.60;;;;;;4914062;29;20455;-86
2021/07/05 10:16:09;;;;;;;4.07;2.30;;;20.70;69.00;;;;;;4908508;29;20032;-88
2021/07/05 10:18:35;;;;;;;4.72;2.47;;;20.80;68.90;;;;;;4906038;29;20059;-88
2021/07/05 10:21:03;;;;;;;5.30;2.03;;;20.90;68.70;;;;;;4912319;29;20055;-89
2021/07/05 10:23:29;;;;;;;4.05;2.33;;;20.90;68.80;;;;;;4907403;29;20020;-88
2021/07/05 10:25:55;;;;;;;4.60;2.60;;;21.00;68.50;;;;;;4909845;29;20034;-87
2021/07/05 10:28:21;;;;;;;4.68;2.80;;;21.00;68.00;;;;;;4908207;29;20039;-86
2021/07/05 10:30:50;;;;;;;3.30;2.30;;;21.10;67.80;;;;;;4911485;29;20024;-87
2021/07/05 10:33:17;;;;;;;7.20;3.10;;;21.10;67.60;;;;;;4911695;29;20044;-88
2021/07/05 10:35:45;;;;;;;3.70;2.17;;;21.00;67.20;;;;;;4910898;29;20028;-91
2021/07/05 10:38:22;;;;;;;5.32;2.50;;;21.00;67.60;;;;;;4910533;29;20114;-91
2021/07/05 10:40:52;;;;;;;3.85;1.70;;;20.90;66.60;;;;;;4911518;29;20547;-91
2021/07/05 10:43:20;;;;;;;4.40;2.55;;;20.80;67.10;;;;;;4912345;29;20036;-86
2021/07/05 10:45:49;;;;;;;6.07;2.40;;;20.80;66.80;;;;;;4919377;29;20043;-91
2021/07/05 10:48:40;;;;;;;4.55;2.20;;;20.90;67.20;;;;;;4911169;29;20052;-87
2021/07/05 10:51:10;;;;;;;4.60;2.28;;;21.00;67.20;;;;;;4911986;29;20166;-90
2021/07/05 10:53:35;;;;;;;3.22;1.88;;;21.00;66.70;;;;;;4916306;29;20044;-88
2021/07/05 10:56:03;;;;;;;4.43;2.30;;;20.90;66.40;;;;;;4907148;29;20548;-89
2021/07/05 10:58:31;;;;;;;2.55;1.80;;;20.90;66.80;;;;;;4908348;29;20128;-88
2021/07/05 11:00:59;;;;;;;2.85;1.85;;;20.90;67.10;;;;;;4911137;29;20024;-89
2021/07/05 11:03:40;;;;;;;4.25;2.13;;;20.90;67.20;;;;;;4912949;29;20028;-89
2021/07/05 11:06:26;;;;;;;4.75;2.20;;;21.00;67.30;;;;;;4906518;29;20496;-86
2021/07/05 11:08:53;;;;;;;3.90;2.60;;;21.00;67.00;;;;;;4911142;29;22216;-88
2021/07/05 11:11:30;;;;;;;5.22;2.60;;;21.00;66.40;;;;;;4910497;29;20028;-88
2021/07/05 11:14:11;;;;;;;4.63;1.90;;;20.90;65.50;;;;;;4910045;29;20566;-89
2021/07/05 11:17:09;;;;;;;4.85;1.98;;;21.00;66.20;;;;;;4917244;29;20032;-89
2021/07/05 11:19:46;;;;;;;3.47;2.05;;;21.10;65.50;;;;;;4900695;29;20063;-90
2021/07/05 11:22:19;;;;;;;3.95;1.80;;;21.10;65.50;;;;;;4904940;29;20567;-90
2021/07/05 11:24:50;;;;;;;2.47;1.55;;;21.10;65.80;;;;;;4914158;29;20547;-89
2021/07/05 11:27:45;;;;;;;3.28;1.60;;;21.20;65.80;;;;;;4914527;29;20028;-90
2021/07/05 11:30:33;;;;;;;3.92;1.30;;;21.20;65.50;;;;;;4906470;29;20373;-88
2021/07/05 11:33:10;;;;;;;6.38;2.20;;;21.30;65.80;;;;;;4912466;29;20051;-88
2021/07/05 11:35:49;;;;;;;5.88;3.03;;;21.40;65.00;;;;;;4910427;29;20040;-87
2021/07/05 11:38:28;;;;;;;7.10;3.17;;;21.30;65.10;;;;;;4912707;29;20384;-89
2021/07/05 11:40:57;;;;;;;4.85;2.65;;;21.20;64.30;;;;;;4912984;29;20106;-88
2021/07/05 11:43:47;;;;;;;6.55;2.42;;;21.20;64.80;;;;;;4923991;29;20024;-88
2021/07/05 11:46:28;;;;;;;3.95;1.98;;;21.20;64.90;;;;;;4920344;29;20055;-90
2021/07/05 11:48:57;;;;;;;3.90;1.85;;;21.40;64.90;;;;;;4919678;29;20032;-87
2021/07/05 11:51:30;;;;;;;8.65;3.45;;;21.50;64.90;;;;;;4914751;29;20080;-87
2021/07/05 11:54:00;;;;;;;3.75;2.40;;;21.30;64.80;;;;;;4914780;29;20115;-89
2021/07/05 11:56:43;;;;;;;5.45;2.95;;;20.90;66.50;;;;;;4915481;29;20024;-88
2021/07/05 11:59:27;;;;;;;3.83;2.20;;;20.60;66.50;;;;;;4914217;29;20498;-86
2021/07/05 12:02:14;;;;;;;3.65;2.20;;;20.40;67.50;;;;;;4909762;29;20402;-86
2021/07/05 12:04:43;;;;;;;5.35;3.22;;;20.30;68.50;;;;;;4906585;29;20063;-85
2021/07/05 12:07:14;;;;;;;3.40;2.05;;;20.20;69.80;;;;;;4906699;29;20028;-86
2021/07/05 12:09:42;;;;;;;6.43;2.60;;;19.90;70.80;;;;;;4916889;29;20091;-85
2021/07/05 12:12:16;;;;;;;2.72;1.80;;;19.70;71.50;;;;;;4913465;29;20068;-86
2021/07/05 12:14:43;;;;;;;2.90;1.98;;;19.70;72.00;;;;;;4913750;29;20043;-84
2021/07/05 12:17:10;;;;;;;2.70;1.90;;;19.60;72.40;;;;;;4912467;29;20124;-85
2021/07/05 12:19:38;;;;;;;2.70;1.67;;;19.70;72.60;;;;;;4913413;29;20028;-85
2021/07/05 12:22:10;;;;;;;1.75;1.48;;;19.90;72.50;;;;;;4903101;29;20197;-87
2021/07/05 12:24:38;;;;;;;2.78;1.70;;;20.10;72.60;;;;;;4916284;29;20122;-89
2021/07/05 12:27:10;;;;;;;2.10;1.40;;;20.30;72.50;;;;;;4916009;29;20024;-90
2021/07/05 12:29:50;;;;;;;3.22;2.10;;;20.50;72.10;;;;;;4918719;29;20032;-87
2021/07/05 12:32:25;;;;;;;2.45;1.60;;;20.60;71.60;;;;;;4910341;29;20701;-88
2021/07/05 12:35:06;;;;;;;2.75;1.60;;;20.70;71.30;;;;;;4913636;29;20586;-90
2021/07/05 12:37:40;;;;;;;2.13;1.60;;;21.00;71.00;;;;;;4912655;29;20028;-92
2021/07/05 12:40:08;;;;;;;2.58;1.73;;;21.30;70.50;;;;;;4917478;29;20042;-93
2021/07/05 12:42:47;;;;;;;1.55;1.30;;;21.30;70.40;;;;;;4915392;29;20047;-91
2021/07/05 12:45:19;;;;;;;2.15;1.58;;;21.50;69.80;;;;;;4916891;29;20035;-88
2021/07/05 12:47:51;;;;;;;3.17;1.80;;;21.60;69.40;;;;;;4915978;29;20494;-88
2021/07/05 12:50:20;;;;;;;3.85;1.80;;;21.70;68.70;;;;;;4909881;29;20580;-92
2021/07/05 12:53:00;;;;;;;2.40;1.75;;;21.60;67.40;;;;;;4917711;29;20128;-92
2021/07/05 12:55:25;;;;;;;2.15;1.40;;;21.60;66.90;;;;;;4917368;29;20184;-88
2021/07/05 12:57:53;;;;;;;3.33;1.60;;;21.50;67.30;;;;;;4913291;29;20051;-89